Weather reports worldwide

Advertisment
Bourg-St-Maurice, France (7497): temperature & dewpoint: 12.09.2019 06:00:00 - 18.09.2019 06:00:00 (CEST)Bourg-St-Maurice, France (7497): temperature -20cm & temperature -100cm: 12.09.2019 06:00:00 - 18.09.2019 06:00:00 (CEST)Bourg-St-Maurice, France (7497): wind speed & gusts: 12.09.2019 06:00:00 - 18.09.2019 06:00:00 (CEST)Bourg-St-Maurice, France (7497): wind direction: 12.09.2019 06:00:00 - 18.09.2019 06:00:00 (CEST)Bourg-St-Maurice, France (7497): sunshine duration: 12.09.2019 06:00:00 - 18.09.2019 06:00:00 (CEST)Bourg-St-Maurice, France (7497): precipitation: 12.09.2019 06:00:00 - 18.09.2019 06:00:00 (CEST)
Date & Time tt [°C] td [°C] tt -20cm [°C] tt -100cm [°C] ff [km/h] ff [kn] fx [km/h] fx [kn] dd sd [min] rr [mm]
18.09.2019 06:00:00 - - - - - - - - - - -
18.09.2019 05:00:00 13,9 9,9 21,6 19,6 0 0 4 2 N 0 0,0
18.09.2019 04:00:00 14,2 9,8 21,7 19,6 2 1 5 3 NW 0 0,0
18.09.2019 03:00:00 14,6 9,8 21,8 19,6 0 0 4 2 N 0 0,0
18.09.2019 02:00:00 15,3 9,9 22,0 19,6 4 2 5 3 NNW 0 0,0
18.09.2019 01:00:00 15,8 9,9 22,1 19,6 2 1 5 3 N 0 0,0
18.09.2019 00:00:00 17,1 10,0 22,2 19,6 3 1 6 3 N 0 0,0
17.09.2019 23:00:00 18,2 9,8 22,3 19,6 3 1 9 5 NNW 0 0,0
17.09.2019 22:00:00 19,3 9,8 22,3 19,6 4 2 11 6 NNE 0 0,0
17.09.2019 21:00:00 21,5 9,1 22,4 19,6 4 2 18 10 W 0 0,0
17.09.2019 20:00:00 22,6 9,7 22,3 19,5 6 4 16 9 W 0 0,0
17.09.2019 19:00:00 26,0 9,3 22,2 19,5 7 4 20 11 NNE 10 0,0
17.09.2019 18:00:00 27,4 8,8 22,1 19,5 11 6 34 18 N 30 0,0
17.09.2019 17:00:00 29,2 8,3 21,8 19,5 13 7 33 18 SE 55 0,0
17.09.2019 16:00:00 30,0 7,8 21,6 19,5 11 6 26 14 SSE 44 0,0
17.09.2019 15:00:00 28,1 7,3 21,2 19,5 9 5 29 16 SSE 36 0,0
17.09.2019 14:00:00 29,3 8,9 20,9 19,5 11 6 24 13 S 57 0,0
17.09.2019 13:00:00 28,2 10,8 20,7 19,5 8 4 18 10 S 60 0,0
17.09.2019 12:00:00 25,7 11,1 20,6 19,5 4 2 10 6 S 60 0,0
17.09.2019 11:00:00 22,7 10,2 20,6 19,5 2 1 6 4 ESE 60 0,0
17.09.2019 10:00:00 19,3 10,8 20,7 19,5 3 1 6 3 NE 60 0,0
17.09.2019 09:00:00 15,1 11,1 20,8 19,5 2 1 4 2 NNE 26 0,0
17.09.2019 08:00:00 13,2 10,2 21,0 19,5 3 1 6 3 N 0 0,0
17.09.2019 07:00:00 13,2 10,2 21,2 19,5 0 0 4 2 N 0 0,0
17.09.2019 06:00:00 13,5 10,3 21,3 19,5 0 0 5 3 N 0 0,0
17.09.2019 05:00:00 14,0 10,4 21,5 19,5 3 2 5 3 N 0 0,0
17.09.2019 04:00:00 14,6 10,6 21,6 19,5 0 0 4 2 N 0 0,0
17.09.2019 03:00:00 15,3 10,7 21,8 19,5 2 1 5 3 N 0 0,0
17.09.2019 02:00:00 15,8 11,0 21,8 19,5 3 1 5 3 NW 0 0,0
17.09.2019 01:00:00 16,7 11,0 22,0 19,5 2 1 5 3 NNW 0 0,0
17.09.2019 00:00:00 17,1 11,1 22,1 19,4 0 0 6 3 N 0 0,0
16.09.2019 23:00:00 18,4 11,2 22,1 19,4 3 2 6 4 NNW 0 0,0
16.09.2019 22:00:00 19,6 11,1 22,2 19,4 0 0 9 5 N 0 0,0
16.09.2019 21:00:00 21,8 10,9 22,2 19,4 4 2 17 9 W 0 0,0
16.09.2019 20:00:00 22,1 11,5 22,2 19,4 4 2 10 5 W 0 0,0
16.09.2019 19:00:00 24,7 10,9 22,0 19,4 2 1 26 14 SW 12 0,0
16.09.2019 18:00:00 29,4 10,0 21,9 19,4 5 3 19 10 ENE 60 0,0
16.09.2019 17:00:00 30,7 8,4 21,6 19,4 9 5 22 12 SW 60 0,0
16.09.2019 16:00:00 30,4 8,7 21,3 19,4 17 9 37 20 ESE 47 0,0
16.09.2019 15:00:00 31,3 8,9 20,9 19,4 7 4 19 10 SSE 60 0,0
16.09.2019 14:00:00 29,7 9,2 20,7 19,4 3 1 16 9 NW 60 0,0
16.09.2019 13:00:00 28,1 9,4 20,4 19,4 4 2 12 7 SSW 60 0,0
16.09.2019 12:00:00 25,3 10,0 20,3 19,4 5 3 11 6 S 60 0,0
16.09.2019 11:00:00 23,1 9,5 20,3 19,3 3 2 7 4 E 60 0,0
16.09.2019 10:00:00 19,1 10,1 20,4 19,4 3 2 7 4 NE 60 0,0
16.09.2019 09:00:00 15,4 10,2 20,6 19,3 3 2 5 3 NNE 33 0,0
16.09.2019 08:00:00 13,5 10,3 20,7 19,3 0 0 6 4 N 1 0,0
16.09.2019 07:00:00 13,6 10,6 20,9 19,3 2 1 6 4 NNW 0 0,0
16.09.2019 06:00:00 13,7 10,7 21,0 19,3 4 2 5 3 N 0 0,0
16.09.2019 05:00:00 14,2 10,8 21,2 19,3 2 1 5 3 N 0 0,0
16.09.2019 04:00:00 14,9 11,7 21,3 19,3 2 1 6 3 NNW 0 0,0
16.09.2019 03:00:00 15,5 11,7 21,4 19,3 2 1 8 4 NW 0 0,0
16.09.2019 02:00:00 16,4 11,5 21,5 19,3 5 3 9 5 NNW 0 0,0
16.09.2019 01:00:00 16,7 11,8 21,6 19,3 3 1 6 3 NNW 0 0,0
16.09.2019 00:00:00 17,6 12,1 21,7 19,3 3 2 9 5 N 0 0,0
15.09.2019 23:00:00 18,2 11,5 21,8 19,3 4 2 6 3 NNE 0 0,0
15.09.2019 22:00:00 19,4 11,7 21,8 19,3 3 2 7 4 N 0 0,0
15.09.2019 21:00:00 20,5 11,4 21,9 19,3 4 2 8 5 NW 0 0,0
15.09.2019 20:00:00 22,4 11,2 21,8 19,3 6 3 11 6 WNW 0 0,0
15.09.2019 19:00:00 24,8 11,0 21,8 19,3 3 2 11 6 NNE 11 0,0
15.09.2019 18:00:00 27,4 11,0 21,6 19,3 6 3 22 12 WSW 60 0,0
15.09.2019 17:00:00 30,4 10,4 21,4 19,3 11 6 29 15 SSW 60 0,0
15.09.2019 16:00:00 30,7 10,6 21,0 19,3 7 4 24 13 S 58 0,0
15.09.2019 15:00:00 30,4 10,9 20,7 19,3 9 5 22 12 S 60 0,0
15.09.2019 14:00:00 29,6 11,6 20,3 19,2 7 4 19 11 SSW 60 0,0
15.09.2019 13:00:00 28,2 12,1 20,1 19,3 5 3 13 7 S 60 0,0
15.09.2019 12:00:00 25,4 12,6 19,9 19,2 5 3 13 7 S 60 0,0
15.09.2019 11:00:00 23,2 12,8 19,9 19,2 2 1 7 4 SSE 60 0,0
15.09.2019 10:00:00 19,8 12,5 20,0 19,3 3 2 7 4 SSE 60 0,0
15.09.2019 09:00:00 16,2 12,4 20,1 19,2 2 1 5 3 ENE 38 0,0
15.09.2019 08:00:00 14,0 11,7 20,2 19,2 0 0 5 3 N 0 0,0
15.09.2019 07:00:00 14,1 11,4 20,4 19,2 0 0 12 7 N 0 0,0
15.09.2019 06:00:00 14,9 12,0 20,5 19,2 7 4 11 6 NW 0 0,0
15.09.2019 05:00:00 14,6 12,1 20,6 19,2 0 0 6 4 N 0 0,0
15.09.2019 04:00:00 15,4 12,5 20,7 19,2 3 1 7 4 NNW 0 0,0
15.09.2019 03:00:00 15,5 12,4 20,9 19,2 2 1 4 2 NNW 0 0,0
15.09.2019 02:00:00 16,2 12,6 20,9 19,2 0 0 7 4 N 0 0,0
15.09.2019 01:00:00 16,9 13,0 21,0 19,2 3 2 6 4 NNW 0 0,0
15.09.2019 00:00:00 17,4 12,7 21,1 19,2 2 1 6 4 NNE 0 0,0
14.09.2019 23:00:00 18,2 13,3 21,2 19,2 4 2 8 4 WNW 0 0,0
14.09.2019 22:00:00 19,6 13,1 21,2 19,2 4 2 8 4 N 0 0,0
14.09.2019 21:00:00 20,5 13,2 21,2 19,2 4 2 10 5 WNW 0 0,0
14.09.2019 20:00:00 22,5 13,0 21,1 19,2 4 2 16 9 WSW 0 0,0
14.09.2019 19:00:00 24,5 13,4 21,0 19,2 4 2 12 6 WSW 12 0,0
14.09.2019 18:00:00 27,3 13,6 20,9 19,2 5 3 23 12 WSW 57 0,0
14.09.2019 17:00:00 28,4 11,9 20,6 19,2 8 5 27 15 S 60 0,0
14.09.2019 16:00:00 29,2 11,7 20,2 19,2 9 5 27 15 SSE 60 0,0
14.09.2019 15:00:00 29,5 11,5 19,8 19,2 8 5 19 10 SSW 60 0,0
14.09.2019 14:00:00 28,6 9,3 19,5 19,2 9 5 20 11 SSW 60 0,0
14.09.2019 13:00:00 27,2 10,8 19,3 19,2 7 4 16 9 SSW 60 0,0
14.09.2019 12:00:00 24,6 10,5 19,1 19,2 5 3 10 6 S 60 0,0
14.09.2019 11:00:00 22,4 9,5 19,1 19,2 3 2 6 4 ESE 60 0,0
14.09.2019 10:00:00 18,7 10,5 19,2 19,2 4 2 8 5 NE 60 0,0
14.09.2019 09:00:00 14,1 10,1 19,3 19,2 0 0 9 5 N 44 0,0
14.09.2019 08:00:00 12,2 9,8 19,5 19,2 4 2 6 4 N 0 0,0
14.09.2019 07:00:00 12,5 9,9 19,6 19,2 0 0 11 6 N 0 0,0
14.09.2019 06:00:00 12,2 9,9 19,7 19,2 5 3 6 4 N 0 0,0
14.09.2019 05:00:00 12,9 10,4 19,9 19,2 0 0 7 4 N 0 0,0
14.09.2019 04:00:00 13,6 10,6 20,0 19,2 3 2 7 4 NW 0 0,0
14.09.2019 03:00:00 14,2 10,8 20,1 19,2 4 2 7 4 NNE 0 0,0
14.09.2019 02:00:00 15,0 11,0 20,2 19,2 4 2 11 6 SW 0 0,0
14.09.2019 01:00:00 16,7 11,2 20,3 19,2 7 4 14 8 NW 0 0,0
14.09.2019 00:00:00 15,8 11,6 20,4 19,2 3 2 6 4 W 0 0,0
13.09.2019 23:00:00 17,0 11,5 20,5 19,2 0 0 6 4 N 0 0,0
13.09.2019 22:00:00 18,3 11,6 20,5 19,2 4 2 10 5 NNW 0 0,0
13.09.2019 21:00:00 19,2 12,0 20,5 19,2 5 3 10 5 WNW 0 0,0
13.09.2019 20:00:00 20,4 12,1 20,5 19,2 4 2 18 10 W 0 0,0
13.09.2019 19:00:00 22,7 11,7 20,4 19,2 6 4 15 8 W 15 0,0
13.09.2019 18:00:00 26,8 11,3 20,2 19,2 8 4 26 14 WSW 60 0,0
13.09.2019 17:00:00 28,6 10,7 20,0 19,2 10 5 29 16 SSW 60 0,0
13.09.2019 16:00:00 29,3 11,4 19,6 19,2 9 5 19 11 SSW 60 0,0
13.09.2019 15:00:00 29,6 10,2 19,1 19,2 10 5 20 11 SSW 60 0,0
13.09.2019 14:00:00 28,1 9,4 18,8 19,2 6 3 20 11 S 60 0,0
13.09.2019 13:00:00 26,5 9,4 18,5 19,2 6 4 16 9 S 60 0,0
13.09.2019 12:00:00 24,4 8,4 18,4 19,2 4 2 10 5 S 60 0,0
13.09.2019 11:00:00 21,0 9,3 18,3 19,2 5 3 9 5 SSE 60 0,0
13.09.2019 10:00:00 18,0 9,6 18,4 19,2 3 2 6 4 ENE 60 0,0
13.09.2019 09:00:00 14,3 9,7 18,6 19,2 4 2 8 4 ENE 48 0,0
13.09.2019 08:00:00 10,9 9,2 18,7 19,2 0 0 7 4 N 0 0,0
13.09.2019 07:00:00 11,0 9,3 18,9 19,2 2 1 5 3 N 0 0,0
13.09.2019 06:00:00 11,5 9,7 19,0 19,2 3 1 8 4 N 0 0,0
13.09.2019 05:00:00 11,7 9,8 19,1 19,2 0 0 7 4 N 0 0,0
13.09.2019 04:00:00 11,9 10,0 19,2 19,2 5 3 6 3 NNW 0 0,0
13.09.2019 03:00:00 12,5 10,2 19,4 19,3 3 1 6 4 SSW 0 0,0
13.09.2019 02:00:00 12,9 10,4 19,5 19,2 3 1 3 2 NNW 0 0,0
13.09.2019 01:00:00 13,7 10,7 19,6 19,2 2 1 5 3 NW 0 0,0
13.09.2019 00:00:00 14,6 11,0 19,7 19,2 0 0 6 4 N 0 0,0
12.09.2019 23:00:00 15,2 11,0 19,8 19,3 0 0 5 3 N 0 0,0
12.09.2019 22:00:00 16,4 11,1 19,8 19,3 2 1 8 4 NNW 0 0,0
12.09.2019 21:00:00 17,4 11,7 19,8 19,3 2 1 9 5 WNW 0 0,0
12.09.2019 20:00:00 19,0 11,6 19,7 19,3 3 2 11 6 W 0 0,0
12.09.2019 19:00:00 20,6 11,8 19,7 19,3 6 3 14 7 W 17 0,0
12.09.2019 18:00:00 24,8 11,4 19,5 19,3 8 4 21 11 SW 60 0,0
12.09.2019 17:00:00 26,4 10,9 19,2 19,3 8 5 22 12 S 60 0,0
12.09.2019 16:00:00 26,4 10,5 18,9 19,3 11 6 24 13 S 60 0,0
12.09.2019 15:00:00 26,5 8,9 18,4 19,3 8 5 22 12 S 60 0,0
12.09.2019 14:00:00 25,3 8,7 18,1 19,3 7 4 20 11 SSW 60 0,0
12.09.2019 13:00:00 23,7 7,7 17,8 19,3 8 4 17 9 S 60 0,0
12.09.2019 12:00:00 21,7 8,2 17,7 19,3 8 4 15 8 S 60 0,0
12.09.2019 11:00:00 19,4 7,8 17,7 19,3 3 2 8 4 ESE 60 0,0
12.09.2019 10:00:00 15,4 8,2 17,8 19,3 5 3 8 4 ENE 60 0,0
12.09.2019 09:00:00 11,1 8,1 17,9 19,3 2 1 6 4 SSW 52 0,0
12.09.2019 08:00:00 9,0 7,3 18,1 19,3 3 1 5 3 N 0 0,0
12.09.2019 07:00:00 9,1 7,4 18,2 19,4 2 1 5 3 N 0 0,0
12.09.2019 06:00:00 9,3 7,6 18,4 19,4 2 1 6 4 NW 0 0,0

tt = temperature
td = dewpoint
tt -20cm = temperature -20cm
tt -100cm = temperature -100cm
ff = wind speed
fx = gusts
dd = wind direction
sd = sunshine duration
rr = precipitation

Next stations